createdAt,value
2019-03-16T00:00:14.777Z,0.00
2019-03-16T00:01:14.764Z,0.00
2019-03-16T00:02:23.642Z,0.00
2019-03-16T00:03:14.756Z,0.00
2019-03-16T00:04:14.733Z,0.00
2019-03-16T00:05:14.715Z,0.00
2019-03-16T00:06:14.711Z,0.00
2019-03-16T00:07:14.718Z,0.00
2019-03-16T00:08:14.663Z,0.00
2019-03-16T00:09:14.651Z,0.00
2019-03-16T00:10:14.635Z,0.00
2019-03-16T00:11:14.642Z,0.00
2019-03-16T00:12:14.609Z,0.00
2019-03-16T00:13:16.097Z,0.00
2019-03-16T00:14:14.722Z,0.00
2019-03-16T00:15:14.585Z,0.00
2019-03-16T00:16:14.600Z,0.00
2019-03-16T00:17:23.092Z,0.00
2019-03-16T00:18:15.548Z,0.00
2019-03-16T00:19:14.638Z,0.00
2019-03-16T00:20:22.152Z,0.00
2019-03-16T00:21:14.587Z,0.00
2019-03-16T00:22:22.116Z,0.00
2019-03-16T00:23:14.580Z,0.00
2019-03-16T00:24:14.514Z,0.00
2019-03-16T00:25:14.469Z,0.00
2019-03-16T00:26:14.517Z,0.00
2019-03-16T00:27:14.447Z,0.00
2019-03-16T00:28:14.440Z,0.00
2019-03-16T00:29:14.417Z,0.00
2019-03-16T00:30:14.412Z,0.00
2019-03-16T00:31:14.456Z,0.00
2019-03-16T00:32:14.405Z,0.00
2019-03-16T00:33:14.384Z,0.00
2019-03-16T00:34:14.379Z,0.00
2019-03-16T00:35:14.359Z,0.00
2019-03-16T00:36:14.344Z,0.00
2019-03-16T00:37:14.361Z,0.00
2019-03-16T00:38:14.332Z,0.00
2019-03-16T00:39:14.312Z,0.00
2019-03-16T00:40:14.318Z,0.00
2019-03-16T00:41:14.323Z,0.00
2019-03-16T00:42:14.284Z,0.00
2019-03-16T00:43:14.292Z,0.00
2019-03-16T00:44:14.256Z,0.00
2019-03-16T00:45:14.244Z,0.00
2019-03-16T00:46:14.235Z,0.00
2019-03-16T00:47:14.251Z,0.00
2019-03-16T00:48:14.277Z,0.00
2019-03-16T00:49:14.245Z,0.00
2019-03-16T00:50:14.199Z,0.00
2019-03-16T00:51:14.187Z,0.00
2019-03-16T00:52:14.166Z,0.00
2019-03-16T00:53:14.182Z,0.00
2019-03-16T00:54:14.143Z,0.00
2019-03-16T00:55:14.131Z,0.00
2019-03-16T00:56:14.125Z,0.00
2019-03-16T00:57:14.114Z,0.00
2019-03-16T00:58:14.113Z,0.00
2019-03-16T00:59:14.118Z,0.00
2019-03-16T01:00:14.080Z,0.00
2019-03-16T01:01:14.219Z,0.00
2019-03-16T01:02:26.521Z,0.00
2019-03-16T01:03:15.046Z,0.00
2019-03-16T01:04:14.060Z,0.00
2019-03-16T01:05:14.057Z,0.00
2019-03-16T01:06:14.018Z,0.00
2019-03-16T01:07:14.002Z,0.00
2019-03-16T01:08:14.003Z,0.00
2019-03-16T01:09:14.041Z,0.00
2019-03-16T01:10:13.971Z,0.00
2019-03-16T01:11:13.971Z,0.00
2019-03-16T01:12:13.954Z,0.00
2019-03-16T01:13:13.936Z,0.00
2019-03-16T01:14:13.958Z,0.00
2019-03-16T01:15:13.918Z,0.00
2019-03-16T01:16:13.904Z,0.00
2019-03-16T01:17:13.910Z,0.00
2019-03-16T01:18:14.007Z,0.00
2019-03-16T01:19:13.876Z,0.00
2019-03-16T01:20:13.910Z,0.00
2019-03-16T01:21:13.851Z,0.00
2019-03-16T01:22:13.907Z,0.00
2019-03-16T01:24:33.076Z,0.00
2019-03-16T01:25:32.950Z,0.00
2019-03-16T01:26:32.900Z,0.00
2019-03-16T01:27:32.873Z,0.00
2019-03-16T01:28:41.897Z,0.00
2019-03-16T01:30:44.335Z,0.00
2019-03-16T01:31:44.182Z,0.00
2019-03-16T01:32:44.107Z,0.00
2019-03-16T01:33:44.120Z,0.00
2019-03-16T01:34:44.463Z,0.00
2019-03-16T01:35:44.075Z,0.00
2019-03-16T01:36:44.070Z,0.00
2019-03-16T01:37:44.057Z,0.00
2019-03-16T01:38:44.051Z,0.00
2019-03-16T01:39:44.038Z,0.00
2019-03-16T01:40:44.050Z,0.00
2019-03-16T01:41:44.012Z,0.00
2019-03-16T01:42:44.008Z,0.00
2019-03-16T01:43:53.924Z,0.00
2019-03-16T01:44:53.500Z,0.00
2019-03-16T01:45:44.071Z,0.00
2019-03-16T01:46:43.967Z,0.00
2019-03-16T01:47:43.952Z,0.00
2019-03-16T01:48:43.959Z,0.00
2019-03-16T01:49:43.964Z,0.00
2019-03-16T01:50:43.996Z,0.00
2019-03-16T01:51:43.970Z,0.00
2019-03-16T01:52:43.887Z,0.00
2019-03-16T01:53:43.876Z,0.00
2019-03-16T01:54:54.297Z,0.00
2019-03-16T01:55:43.978Z,0.00
2019-03-16T01:56:43.911Z,0.00
2019-03-16T01:57:43.889Z,0.00
2019-03-16T01:58:43.873Z,0.00
2019-03-16T01:59:43.819Z,0.00
2019-03-16T02:00:43.831Z,0.00
2019-03-16T02:01:43.791Z,0.00
2019-03-16T02:02:54.295Z,0.00
2019-03-16T02:03:44.778Z,0.00
2019-03-16T02:04:43.799Z,0.00
2019-03-16T02:05:43.819Z,0.00
2019-03-16T02:06:43.780Z,0.00
2019-03-16T02:07:52.551Z,0.00
2019-03-16T02:08:43.774Z,0.00
2019-03-16T02:09:43.770Z,0.00
2019-03-16T02:10:43.708Z,0.00
2019-03-16T02:11:43.744Z,0.00
2019-03-16T02:12:43.739Z,0.00
2019-03-16T02:13:43.698Z,0.00
2019-03-16T02:14:43.661Z,0.00
2019-03-16T02:15:43.648Z,0.00
2019-03-16T02:16:43.663Z,0.00
2019-03-16T02:17:43.633Z,0.00
2019-03-16T02:18:43.755Z,0.00
2019-03-16T02:19:43.657Z,0.00
2019-03-16T02:20:43.593Z,0.00
2019-03-16T02:21:43.684Z,0.00
2019-03-16T02:22:43.592Z,0.00
2019-03-16T02:23:51.249Z,0.00
2019-03-16T02:24:43.603Z,0.00
2019-03-16T02:25:43.605Z,0.00
2019-03-16T02:26:43.552Z,0.00
2019-03-16T02:29:02.641Z,0.00
2019-03-16T02:30:11.493Z,0.00
2019-03-16T02:31:02.563Z,0.00
2019-03-16T02:32:02.593Z,0.00
2019-03-16T02:33:12.622Z,0.00
2019-03-16T02:34:03.544Z,0.00
2019-03-16T02:35:02.472Z,0.00
2019-03-16T02:36:02.496Z,0.00
2019-03-16T02:37:02.539Z,0.00
2019-03-16T02:38:02.445Z,0.00
2019-03-16T02:39:02.457Z,0.00
2019-03-16T02:40:02.418Z,0.00
2019-03-16T02:41:02.413Z,0.00
2019-03-16T02:42:02.430Z,0.00
2019-03-16T02:43:02.425Z,0.00
2019-03-16T02:44:02.388Z,0.00
2019-03-16T02:45:02.369Z,0.00
2019-03-16T02:46:02.375Z,0.00
2019-03-16T02:47:02.518Z,0.00
2019-03-16T02:48:02.356Z,0.00
2019-03-16T02:49:02.343Z,0.00
2019-03-16T02:50:02.347Z,0.00
2019-03-16T02:51:02.297Z,0.00
2019-03-16T02:52:02.322Z,0.00
2019-03-16T02:53:02.288Z,0.00
2019-03-16T02:54:02.304Z,0.00
2019-03-16T02:55:02.274Z,0.00
2019-03-16T02:56:02.234Z,0.00
2019-03-16T02:57:02.235Z,0.00
2019-03-16T02:58:02.217Z,0.00
2019-03-16T02:59:02.272Z,0.00
2019-03-16T03:00:02.198Z,0.00
2019-03-16T03:01:02.181Z,0.00
2019-03-16T03:02:02.183Z,0.00
2019-03-16T03:03:02.173Z,0.00
2019-03-16T03:04:02.211Z,0.00
2019-03-16T03:05:02.158Z,0.00
2019-03-16T03:06:02.191Z,0.00
2019-03-16T03:07:02.123Z,0.00
2019-03-16T03:08:02.135Z,0.00
2019-03-16T03:09:02.145Z,0.00
2019-03-16T03:10:02.090Z,0.00
2019-03-16T03:11:02.156Z,0.00
2019-03-16T03:12:02.097Z,0.00
2019-03-16T03:13:02.064Z,0.00
2019-03-16T03:14:02.093Z,0.00
2019-03-16T03:15:02.078Z,0.00
2019-03-16T03:16:02.032Z,0.00
2019-03-16T03:17:02.099Z,0.00
2019-03-16T03:18:02.006Z,0.00
2019-03-16T03:19:02.021Z,0.00
2019-03-16T03:20:01.997Z,0.00
2019-03-16T03:21:01.990Z,0.00
2019-03-16T03:22:01.989Z,0.00
2019-03-16T03:23:01.990Z,0.00
2019-03-16T03:24:01.982Z,0.00
2019-03-16T03:25:01.932Z,0.00
2019-03-16T03:26:01.920Z,0.00
2019-03-16T03:27:01.944Z,0.00
2019-03-16T03:28:01.907Z,0.00
2019-03-16T03:29:01.913Z,0.00
2019-03-16T03:30:01.906Z,0.00
2019-03-16T03:31:01.878Z,0.00
2019-03-16T03:32:01.874Z,0.00
2019-03-16T03:33:01.997Z,0.00
2019-03-16T03:34:02.817Z,0.00
2019-03-16T03:35:01.855Z,0.00
2019-03-16T03:36:01.813Z,0.00
2019-03-16T03:37:01.864Z,0.00
2019-03-16T03:38:01.805Z,0.00
2019-03-16T03:39:01.811Z,0.00
2019-03-16T03:40:01.830Z,0.00
2019-03-16T03:41:02.121Z,0.00
2019-03-16T03:42:11.693Z,0.00
2019-03-16T03:43:01.849Z,0.00
2019-03-16T03:44:01.766Z,0.00
2019-03-16T03:45:01.726Z,0.00
2019-03-16T03:46:01.723Z,0.00
2019-03-16T03:47:01.688Z,0.00
2019-03-16T03:48:01.670Z,0.00
2019-03-16T03:49:01.732Z,0.00
2019-03-16T03:50:01.670Z,0.00
2019-03-16T03:51:01.682Z,0.00
2019-03-16T03:52:01.640Z,0.00
2019-03-16T03:53:01.630Z,0.00
2019-03-16T03:54:01.630Z,0.00
2019-03-16T03:55:01.608Z,0.00
2019-03-16T03:56:01.691Z,0.00
2019-03-16T03:57:01.611Z,0.00
2019-03-16T03:58:01.610Z,0.00
2019-03-16T03:59:01.556Z,0.00
2019-03-16T04:00:01.580Z,0.00
2019-03-16T04:01:01.552Z,0.00
2019-03-16T04:02:01.534Z,0.00
2019-03-16T04:03:01.555Z,0.00
2019-03-16T04:04:14.284Z,0.00
2019-03-16T04:05:02.490Z,0.00
2019-03-16T04:06:01.504Z,0.00
2019-03-16T04:07:01.471Z,0.00
2019-03-16T04:08:01.532Z,0.00
2019-03-16T04:09:01.511Z,0.00
2019-03-16T04:10:01.431Z,0.00
2019-03-16T04:11:01.449Z,0.00
2019-03-16T04:12:01.417Z,0.00
2019-03-16T04:13:01.412Z,0.00
2019-03-16T04:14:01.416Z,0.00
2019-03-16T04:15:01.388Z,0.00
2019-03-16T04:16:01.408Z,0.00
2019-03-16T04:17:01.370Z,0.00
2019-03-16T04:18:01.352Z,0.00
2019-03-16T04:19:01.469Z,0.00
2019-03-16T04:20:01.516Z,0.00
2019-03-16T04:21:01.356Z,0.00
2019-03-16T04:22:01.303Z,0.00
2019-03-16T04:23:01.341Z,0.00
2019-03-16T04:24:51.501Z,0.00
2019-03-16T04:25:51.523Z,0.00
2019-03-16T04:26:51.463Z,0.00
2019-03-16T04:27:51.433Z,0.00
2019-03-16T04:28:51.424Z,0.00
2019-03-16T04:29:51.414Z,0.00
2019-03-16T04:31:02.348Z,0.00
2019-03-16T04:31:51.433Z,0.00
2019-03-16T04:32:51.401Z,0.00
2019-03-16T04:33:51.364Z,0.00
2019-03-16T04:34:51.351Z,0.00
2019-03-16T04:35:51.372Z,0.00
2019-03-16T04:36:51.370Z,0.00
2019-03-16T04:37:51.333Z,0.00
2019-03-16T04:38:51.342Z,0.00
2019-03-16T04:39:51.335Z,0.00
2019-03-16T04:40:51.290Z,0.00
2019-03-16T04:41:51.280Z,0.00
2019-03-16T04:42:51.300Z,0.00
2019-03-16T04:43:51.273Z,0.00
2019-03-16T04:44:51.249Z,0.00
2019-03-16T04:45:51.251Z,0.00
2019-03-16T04:46:51.226Z,0.00
2019-03-16T04:47:51.235Z,0.00
2019-03-16T04:48:51.212Z,0.00
2019-03-16T04:49:51.194Z,0.00
2019-03-16T04:50:51.191Z,0.00
2019-03-16T04:51:51.172Z,0.00
2019-03-16T04:52:51.342Z,0.00
2019-03-16T04:53:51.146Z,0.00
2019-03-16T04:54:51.155Z,0.00
2019-03-16T04:55:51.129Z,0.00
2019-03-16T04:56:51.188Z,0.00
2019-03-16T04:57:51.106Z,0.00
2019-03-16T04:58:51.801Z,0.00
2019-03-16T04:59:51.089Z,0.00
2019-03-16T05:00:51.085Z,0.00
2019-03-16T05:01:51.066Z,0.00
2019-03-16T05:02:51.075Z,0.00
2019-03-16T05:03:51.066Z,0.00
2019-03-16T05:04:51.048Z,0.00
2019-03-16T05:05:51.042Z,0.00
2019-03-16T05:06:51.051Z,0.00
2019-03-16T05:07:50.992Z,0.00
2019-03-16T05:08:51.003Z,0.00
2019-03-16T05:09:50.972Z,0.00
2019-03-16T05:10:51.006Z,0.00
2019-03-16T05:11:50.959Z,0.00
2019-03-16T05:12:50.968Z,0.00
2019-03-16T05:13:50.950Z,0.00
2019-03-16T05:14:50.935Z,0.00
2019-03-16T05:15:51.279Z,0.00
2019-03-16T05:16:50.996Z,0.00
2019-03-16T05:17:50.898Z,0.00
2019-03-16T05:18:50.911Z,0.00
2019-03-16T05:19:50.871Z,0.00
2019-03-16T05:20:58.413Z,0.00
2019-03-16T05:21:50.865Z,0.00
2019-03-16T05:22:50.879Z,0.00
2019-03-16T05:23:50.840Z,0.00
2019-03-16T05:24:50.810Z,0.00
2019-03-16T05:25:50.798Z,0.00
2019-03-16T05:26:50.813Z,0.00
2019-03-16T05:27:50.784Z,0.00
2019-03-16T05:28:50.877Z,0.00
2019-03-16T05:29:50.790Z,0.00
2019-03-16T05:30:50.737Z,0.00
2019-03-16T05:31:50.939Z,0.00
2019-03-16T05:32:50.757Z,4.00
2019-03-16T05:33:50.736Z,4.00
2019-03-16T05:34:56.486Z,4.00
2019-03-16T05:35:51.681Z,4.00
2019-03-16T05:36:50.718Z,4.00
2019-03-16T05:37:50.691Z,4.00
2019-03-16T05:38:50.666Z,8.00
2019-03-16T05:39:50.659Z,8.00
2019-03-16T05:40:50.636Z,4.00
2019-03-16T05:41:50.625Z,12.00
2019-03-16T05:42:50.683Z,12.00
2019-03-16T05:43:50.609Z,8.00
2019-03-16T05:44:50.627Z,8.00
2019-03-16T05:45:50.623Z,8.00
2019-03-16T05:46:50.578Z,8.00
2019-03-16T05:47:50.598Z,12.00
2019-03-16T05:48:58.121Z,16.00
2019-03-16T05:49:50.614Z,16.00
2019-03-16T05:50:50.537Z,20.00
2019-03-16T05:51:50.521Z,20.00
2019-03-16T05:52:50.582Z,24.00
2019-03-16T05:53:50.492Z,24.00
2019-03-16T05:54:50.532Z,28.00
2019-03-16T05:55:50.491Z,32.00
2019-03-16T05:56:50.473Z,32.00
2019-03-16T05:57:50.462Z,32.00
2019-03-16T05:58:50.468Z,40.00
2019-03-16T05:59:50.434Z,44.00
2019-03-16T06:00:50.439Z,48.00
2019-03-16T06:01:50.437Z,56.00
2019-03-16T06:02:50.411Z,64.00
2019-03-16T06:03:50.399Z,64.00
2019-03-16T06:04:50.391Z,60.00
2019-03-16T06:05:50.355Z,60.00
2019-03-16T06:06:50.395Z,64.00
2019-03-16T06:07:50.359Z,64.00
2019-03-16T06:08:50.343Z,68.00
2019-03-16T06:09:50.380Z,68.00
2019-03-16T06:10:50.336Z,80.00
2019-03-16T06:11:50.388Z,80.00
2019-03-16T06:12:50.292Z,104.00
2019-03-16T06:13:50.273Z,112.00
2019-03-16T06:14:50.271Z,120.00
2019-03-16T06:15:50.285Z,132.00
2019-03-16T06:16:50.288Z,144.00
2019-03-16T06:17:50.248Z,116.00
2019-03-16T06:18:50.227Z,108.00
2019-03-16T06:19:50.217Z,116.00
2019-03-16T06:20:50.223Z,140.00
2019-03-16T06:21:50.218Z,100.00
2019-03-16T06:22:50.293Z,88.00
2019-03-16T06:23:50.175Z,92.00
2019-03-16T06:24:50.189Z,84.00
2019-03-16T06:25:50.215Z,100.00
2019-03-16T06:26:50.157Z,96.00
2019-03-16T06:27:50.126Z,112.00
2019-03-16T06:28:50.177Z,104.00
2019-03-16T06:29:50.096Z,92.00
2019-03-16T06:30:50.126Z,104.00
2019-03-16T06:31:50.115Z,112.00
2019-03-16T06:32:50.064Z,104.00
2019-03-16T06:33:50.056Z,80.00
2019-03-16T06:34:50.049Z,100.00
2019-03-16T06:35:50.069Z,100.00
2019-03-16T06:36:50.031Z,132.00
2019-03-16T06:37:50.055Z,188.00
2019-03-16T06:38:50.042Z,196.00
2019-03-16T06:39:50.038Z,172.00
2019-03-16T06:40:49.990Z,188.00
2019-03-16T06:41:49.976Z,188.00
2019-03-16T06:42:50.000Z,180.00
2019-03-16T06:43:49.975Z,168.00
2019-03-16T06:44:49.971Z,148.00
2019-03-16T06:45:49.924Z,160.00
2019-03-16T06:46:57.462Z,176.00
2019-03-16T06:52:34.217Z,172.00
2019-03-16T06:53:42.941Z,180.00
2019-03-16T06:54:41.698Z,212.00
2019-03-16T06:55:34.152Z,160.00
2019-03-16T06:56:34.141Z,152.00
2019-03-16T06:57:34.127Z,176.00
2019-03-16T06:58:34.137Z,148.00
2019-03-16T06:59:34.107Z,164.00
2019-03-16T07:00:34.121Z,164.00
2019-03-16T07:01:34.087Z,180.00
2019-03-16T07:02:34.071Z,208.00
2019-03-16T07:03:34.117Z,204.00
2019-03-16T07:04:34.058Z,252.00
2019-03-16T07:05:38.793Z,252.00
2019-03-16T07:06:35.028Z,252.00
2019-03-16T07:07:34.095Z,300.00
2019-03-16T07:08:34.031Z,364.00
2019-03-16T07:09:34.002Z,376.00
2019-03-16T07:10:34.102Z,388.00
2019-03-16T07:11:33.981Z,356.00
2019-03-16T07:12:34.896Z,272.00
2019-03-16T07:13:33.983Z,208.00
2019-03-16T07:14:33.949Z,180.00
2019-03-16T07:15:33.949Z,152.00
2019-03-16T07:16:33.946Z,168.00
2019-03-16T07:17:33.917Z,204.00
2019-03-16T07:18:33.935Z,228.00
2019-03-16T07:19:34.150Z,288.00
2019-03-16T07:20:33.883Z,292.00
2019-03-16T07:21:33.884Z,372.00
2019-03-16T07:22:33.856Z,356.00
2019-03-16T07:23:34.038Z,444.00
2019-03-16T07:24:33.842Z,424.00
2019-03-16T07:25:33.826Z,480.00
2019-03-16T07:26:33.815Z,648.00
2019-03-16T07:27:33.821Z,740.00
2019-03-16T07:28:33.824Z,976.00
2019-03-16T07:29:33.801Z,1228.00
2019-03-16T07:30:36.788Z,1264.00
2019-03-16T07:31:33.763Z,1292.00
2019-03-16T07:32:33.777Z,1352.00
2019-03-16T07:33:33.760Z,1312.00
2019-03-16T07:34:33.756Z,1168.00
2019-03-16T07:35:33.756Z,1000.00
2019-03-16T07:36:36.111Z,716.00
2019-03-16T07:37:33.695Z,812.00
2019-03-16T07:38:33.710Z,824.00
2019-03-16T07:39:33.674Z,856.00
2019-03-16T07:40:33.718Z,1104.00
2019-03-16T07:41:33.664Z,1300.00
2019-03-16T07:42:33.649Z,1172.00
2019-03-16T07:43:33.649Z,1240.00
2019-03-16T07:44:33.650Z,1268.00
2019-03-16T07:45:33.615Z,1376.00
2019-03-16T07:46:33.609Z,1696.00
2019-03-16T07:47:33.591Z,1768.00
2019-03-16T07:48:33.616Z,1844.00
2019-03-16T07:49:33.599Z,1812.00
2019-03-16T07:50:33.560Z,1940.00
2019-03-16T07:51:33.547Z,1804.00
2019-03-16T07:52:33.547Z,1756.00
2019-03-16T07:53:33.527Z,1744.00
2019-03-16T07:54:33.557Z,1044.00
2019-03-16T07:55:33.518Z,872.00
2019-03-16T07:56:33.502Z,640.00
2019-03-16T07:57:40.079Z,676.00
2019-03-16T07:58:34.475Z,944.00
2019-03-16T07:59:36.727Z,1204.00
2019-03-16T08:00:33.477Z,1472.00
2019-03-16T08:01:33.445Z,1768.00
2019-03-16T08:02:33.433Z,2732.00
2019-03-16T08:03:33.433Z,2356.00
2019-03-16T08:04:33.418Z,2480.00
2019-03-16T08:05:33.425Z,2300.00
2019-03-16T08:06:33.632Z,2124.00
2019-03-16T08:07:33.378Z,1032.00
2019-03-16T08:08:33.370Z,920.00
2019-03-16T08:09:33.371Z,872.00
2019-03-16T08:10:33.381Z,604.00
2019-03-16T08:11:33.330Z,636.00
2019-03-16T08:12:33.322Z,1000.00
2019-03-16T08:13:33.408Z,672.00
2019-03-16T08:14:33.303Z,444.00
2019-03-16T08:15:33.305Z,504.00
2019-03-16T08:16:33.288Z,572.00
2019-03-16T08:17:33.267Z,584.00
2019-03-16T08:18:33.259Z,576.00
2019-03-16T08:19:33.252Z,676.00
2019-03-16T08:20:33.257Z,696.00
2019-03-16T08:21:33.228Z,752.00
2019-03-16T08:22:33.222Z,964.00
2019-03-16T08:23:33.225Z,1004.00
2019-03-16T08:24:33.209Z,800.00
2019-03-16T08:25:33.211Z,688.00
2019-03-16T08:26:33.220Z,636.00
2019-03-16T08:27:33.199Z,760.00
2019-03-16T08:28:33.157Z,784.00
2019-03-16T08:29:33.146Z,732.00
2019-03-16T08:30:33.130Z,824.00
2019-03-16T08:31:33.137Z,864.00
2019-03-16T08:32:33.116Z,652.00
2019-03-16T08:33:33.120Z,540.00
2019-03-16T08:34:33.093Z,552.00
2019-03-16T08:35:33.077Z,568.00
2019-03-16T08:36:33.087Z,512.00
2019-03-16T08:37:33.053Z,504.00
2019-03-16T08:38:33.089Z,432.00
2019-03-16T08:39:33.030Z,536.00
2019-03-16T08:40:33.037Z,788.00
2019-03-16T08:41:33.039Z,940.00
2019-03-16T08:42:33.001Z,864.00
2019-03-16T08:43:32.995Z,780.00
2019-03-16T08:44:32.998Z,804.00
2019-03-16T08:45:32.973Z,792.00
2019-03-16T08:46:33.020Z,608.00
2019-03-16T08:47:32.946Z,612.00
2019-03-16T08:48:32.937Z,540.00
2019-03-16T08:49:32.924Z,504.00
2019-03-16T08:50:32.950Z,568.00
2019-03-16T08:51:32.906Z,588.00
2019-03-16T08:52:32.908Z,612.00
2019-03-16T08:53:32.894Z,596.00
2019-03-16T08:54:32.869Z,660.00
2019-03-16T08:55:32.865Z,588.00
2019-03-16T08:56:32.857Z,828.00
2019-03-16T08:57:32.874Z,760.00
2019-03-16T08:58:32.829Z,768.00
2019-03-16T08:59:32.832Z,752.00
2019-03-16T09:00:32.805Z,836.00
2019-03-16T09:01:32.936Z,968.00
2019-03-16T09:13:17.871Z,752.00
2019-03-16T09:14:17.847Z,888.00
2019-03-16T09:15:17.841Z,956.00
2019-03-16T09:16:17.828Z,756.00
2019-03-16T09:17:17.816Z,860.00
2019-03-16T09:18:17.822Z,872.00
2019-03-16T09:19:17.852Z,752.00
2019-03-16T09:20:17.780Z,688.00
2019-03-16T09:21:17.779Z,668.00
2019-03-16T09:22:17.756Z,876.00
2019-03-16T09:23:17.792Z,912.00
2019-03-16T09:24:17.736Z,888.00
2019-03-16T09:25:17.722Z,888.00
2019-03-16T09:26:17.731Z,796.00
2019-03-16T09:27:30.248Z,888.00
2019-03-16T09:28:19.159Z,968.00
2019-03-16T09:29:17.707Z,964.00
2019-03-16T09:30:17.668Z,932.00
2019-03-16T09:31:17.660Z,1076.00
2019-03-16T09:32:17.662Z,1276.00
2019-03-16T09:33:17.719Z,1436.00
2019-03-16T09:34:17.643Z,1752.00
2019-03-16T09:35:17.615Z,1564.00
2019-03-16T09:36:17.656Z,1632.00
2019-03-16T09:37:17.595Z,2124.00
2019-03-16T09:38:17.650Z,2552.00
2019-03-16T09:39:17.595Z,3928.00
2019-03-16T09:40:17.611Z,2368.00
2019-03-16T09:41:17.556Z,1868.00
2019-03-16T09:42:17.538Z,1808.00
2019-03-16T09:43:17.533Z,1956.00
2019-03-16T09:44:17.549Z,2516.00
2019-03-16T09:45:17.515Z,3460.00
2019-03-16T09:46:17.513Z,5156.00
2019-03-16T09:47:17.484Z,5812.00
2019-03-16T09:48:17.480Z,7196.00
2019-03-16T09:49:17.494Z,4948.00
2019-03-16T09:50:17.454Z,3736.00
2019-03-16T09:51:17.451Z,3612.00
2019-03-16T09:52:17.439Z,3788.00
2019-03-16T09:53:17.427Z,9160.00
2019-03-16T09:54:17.453Z,4484.00
2019-03-16T09:55:17.403Z,2584.00
2019-03-16T09:56:25.931Z,2516.00
2019-03-16T09:57:17.376Z,2784.00
2019-03-16T09:58:17.363Z,2800.00
2019-03-16T09:59:17.374Z,2644.00
2019-03-16T10:00:17.349Z,2000.00
2019-03-16T10:01:17.338Z,2836.00
2019-03-16T10:02:17.333Z,2888.00
2019-03-16T10:03:17.326Z,3580.00
2019-03-16T10:04:17.362Z,2856.00
2019-03-16T10:05:17.288Z,2792.00
2019-03-16T10:06:17.279Z,5120.00
2019-03-16T10:07:17.266Z,5712.00
2019-03-16T10:08:19.190Z,5296.00
2019-03-16T10:09:17.279Z,3528.00
2019-03-16T10:10:17.229Z,3376.00
2019-03-16T10:11:17.221Z,3540.00
2019-03-16T10:12:17.229Z,7272.00
2019-03-16T10:13:17.245Z,8108.00
2019-03-16T10:14:17.192Z,11784.00
2019-03-16T10:15:17.201Z,4460.00
2019-03-16T10:16:17.211Z,11552.00
2019-03-16T10:17:17.154Z,6616.00
2019-03-16T10:18:17.168Z,5112.00
2019-03-16T10:19:17.174Z,3616.00
2019-03-16T10:20:17.144Z,2996.00
2019-03-16T10:21:18.817Z,2992.00
2019-03-16T10:22:17.106Z,3316.00
2019-03-16T10:23:17.092Z,2972.00
2019-03-16T10:24:17.077Z,3276.00
2019-03-16T10:25:26.838Z,3168.00
2019-03-16T10:26:17.057Z,4028.00
2019-03-16T10:27:17.047Z,5052.00
2019-03-16T10:28:17.039Z,4716.00
2019-03-16T10:29:17.026Z,3652.00
2019-03-16T10:30:17.011Z,2272.00
2019-03-16T10:31:17.018Z,1592.00
2019-03-16T10:32:16.990Z,1612.00
2019-03-16T10:33:16.982Z,1856.00
2019-03-16T10:34:16.979Z,1608.00
2019-03-16T10:35:16.980Z,1392.00
2019-03-16T10:36:16.944Z,1316.00
2019-03-16T10:37:16.939Z,1192.00
2019-03-16T10:38:16.929Z,1240.00
2019-03-16T10:39:16.913Z,956.00
2019-03-16T10:40:16.902Z,844.00
2019-03-16T10:41:16.922Z,740.00
2019-03-16T10:42:16.883Z,740.00
2019-03-16T10:43:16.871Z,984.00
2019-03-16T10:44:16.863Z,1756.00
2019-03-16T10:45:16.849Z,2280.00
2019-03-16T10:46:16.857Z,1620.00
2019-03-16T10:47:16.828Z,1600.00
2019-03-16T10:48:16.816Z,1924.00
2019-03-16T10:49:24.445Z,2316.00
2019-03-16T10:50:16.793Z,2836.00
2019-03-16T10:51:16.799Z,3532.00
2019-03-16T10:52:16.771Z,3076.00
2019-03-16T10:53:16.758Z,3492.00
2019-03-16T10:54:16.747Z,5116.00
2019-03-16T10:55:16.734Z,3920.00
2019-03-16T10:56:16.859Z,3800.00
2019-03-16T10:57:16.722Z,5056.00
2019-03-16T10:58:16.705Z,4408.00
2019-03-16T10:59:16.691Z,3908.00
2019-03-16T11:00:16.688Z,3996.00
2019-03-16T11:01:16.677Z,4040.00
2019-03-16T11:02:16.676Z,3800.00
2019-03-16T11:03:16.656Z,2980.00
2019-03-16T11:04:16.640Z,2864.00
2019-03-16T11:05:16.627Z,3088.00
2019-03-16T11:06:16.620Z,4372.00
2019-03-16T11:07:16.626Z,4184.00
2019-03-16T11:08:16.593Z,4092.00
2019-03-16T11:09:16.582Z,5156.00
2019-03-16T11:10:16.571Z,5324.00
2019-03-16T11:11:16.561Z,6068.00
2019-03-16T11:12:16.580Z,7716.00
2019-03-16T11:13:16.541Z,7140.00
2019-03-16T11:14:16.531Z,6040.00
2019-03-16T11:15:16.520Z,7104.00
2019-03-16T11:16:16.508Z,6156.00
2019-03-16T11:17:16.516Z,6744.00
2019-03-16T11:18:16.486Z,7132.00
2019-03-16T11:19:16.479Z,8156.00
2019-03-16T11:20:16.527Z,8644.00
2019-03-16T11:21:16.463Z,9892.00
2019-03-16T11:22:16.548Z,11112.00
2019-03-16T11:23:16.435Z,11384.00
2019-03-16T11:24:16.487Z,11124.00
2019-03-16T11:25:16.423Z,12588.00
2019-03-16T11:26:16.412Z,16064.00
2019-03-16T11:27:17.328Z,24800.00
2019-03-16T11:28:16.401Z,43008.00
2019-03-16T11:29:16.372Z,52000.00
2019-03-16T11:30:16.362Z,56480.00
2019-03-16T11:31:16.352Z,13248.00
2019-03-16T11:32:16.334Z,32896.00
2019-03-16T11:33:16.344Z,9952.00
2019-03-16T11:34:16.323Z,3456.00
2019-03-16T11:35:16.304Z,2560.00
2019-03-16T11:36:16.292Z,2312.00
2019-03-16T11:37:16.318Z,2236.00
2019-03-16T11:38:16.298Z,1956.00
2019-03-16T11:39:16.265Z,2008.00
2019-03-16T11:40:16.249Z,1724.00
2019-03-16T11:41:16.237Z,1656.00
2019-03-16T11:42:16.236Z,1652.00
2019-03-16T11:43:16.296Z,1696.00
2019-03-16T11:44:16.240Z,1816.00
2019-03-16T11:45:17.295Z,2104.00
2019-03-16T11:46:16.193Z,2240.00
2019-03-16T11:47:16.170Z,2408.00
2019-03-16T11:48:16.162Z,2200.00
2019-03-16T11:49:16.149Z,1992.00
2019-03-16T11:50:16.137Z,1796.00
2019-03-16T11:51:16.145Z,2012.00
2019-03-16T11:52:16.117Z,1544.00
2019-03-16T11:53:16.103Z,1796.00
2019-03-16T11:54:16.092Z,1652.00
2019-03-16T11:55:16.081Z,1504.00
2019-03-16T11:56:18.255Z,1868.00
2019-03-16T11:57:16.059Z,2124.00
2019-03-16T11:58:16.051Z,2196.00
2019-03-16T11:59:21.590Z,2212.00
2019-03-16T12:00:17.025Z,2196.00
2019-03-16T12:01:16.047Z,2268.00
2019-03-16T12:02:16.012Z,2548.00
2019-03-16T12:03:15.995Z,2864.00
2019-03-16T12:04:15.984Z,3028.00
2019-03-16T12:05:15.971Z,3176.00
2019-03-16T12:06:15.971Z,3332.00
2019-03-16T12:07:15.983Z,3060.00
2019-03-16T12:08:15.943Z,2652.00
2019-03-16T12:09:15.928Z,2004.00
2019-03-16T12:10:15.941Z,1664.00
2019-03-16T12:11:15.916Z,1284.00
2019-03-16T12:12:15.915Z,1212.00
2019-03-16T12:13:17.780Z,1116.00
2019-03-16T12:14:15.876Z,1056.00
2019-03-16T12:15:15.866Z,1024.00
2019-03-16T12:16:15.854Z,1020.00
2019-03-16T12:17:15.871Z,976.00
2019-03-16T12:18:15.833Z,952.00
2019-03-16T12:19:15.824Z,988.00
2019-03-16T12:20:18.206Z,908.00
2019-03-16T12:21:15.799Z,840.00
2019-03-16T12:22:15.809Z,1080.00
2019-03-16T12:23:15.785Z,1476.00
2019-03-16T12:24:15.773Z,1820.00
2019-03-16T12:25:15.761Z,2008.00
2019-03-16T12:26:15.747Z,1448.00
2019-03-16T12:27:15.778Z,1404.00
2019-03-16T12:28:15.732Z,1604.00
2019-03-16T12:29:15.715Z,1624.00
2019-03-16T12:30:15.710Z,1272.00
2019-03-16T12:31:15.698Z,968.00
2019-03-16T12:32:15.700Z,856.00
2019-03-16T12:33:15.675Z,856.00
2019-03-16T12:34:15.666Z,1040.00
2019-03-16T12:35:15.669Z,1404.00
2019-03-16T12:36:15.639Z,1516.00
2019-03-16T12:37:15.651Z,1264.00
2019-03-16T12:38:15.619Z,1580.00
2019-03-16T12:39:15.606Z,1544.00
2019-03-16T12:40:15.611Z,1668.00
2019-03-16T12:41:15.583Z,1604.00
2019-03-16T12:42:15.594Z,1544.00
2019-03-16T12:43:15.572Z,1516.00
2019-03-16T12:44:15.553Z,1320.00
2019-03-16T12:45:15.542Z,1232.00
2019-03-16T12:46:15.535Z,1356.00
2019-03-16T12:47:15.535Z,1360.00
2019-03-16T12:48:15.506Z,1224.00
2019-03-16T12:49:15.530Z,1036.00
2019-03-16T12:50:15.495Z,888.00
2019-03-16T12:51:15.489Z,832.00
2019-03-16T12:52:15.486Z,860.00
2019-03-16T12:53:15.460Z,788.00
2019-03-16T12:54:15.440Z,764.00
2019-03-16T12:55:15.435Z,708.00
2019-03-16T12:56:15.430Z,616.00
2019-03-16T12:57:15.428Z,604.00
2019-03-16T12:58:15.422Z,652.00
2019-03-16T12:59:15.395Z,788.00
2019-03-16T13:00:15.374Z,1024.00
2019-03-16T13:01:15.371Z,872.00
2019-03-16T13:02:15.372Z,688.00
2019-03-16T13:03:15.340Z,680.00